Milford, Utah
Current Conditions -  °F | °C
As of 4:52 AM on Friday 24 Oct 2014 (Local Time) from KMLF Reporting Station
Clear Clear  
Wind Chill: 52°   Ceiling: Unl
Heat Index: 52°   Visibility: 10mi
Dew Point: 30°   Wind: 14mph
Humidity: 43%   Direction: 230°SW
Pressure: 30.19"   Gusts: NA
Location:  38.4°N, 113.01°W
Report Text: KMLF 241052Z AUTO 23012KT 10SM CLR 11/M01 A3019 RMK AO2 SLP176 T01111011 TSNO
Loading
Personal Weather Stations






























Interactive Weather Map
Tropical Storm Tracking
New forecast layout! Learn more

10-Day Weather Forecast

Advertisements
Track Severe Weather on mobile